Time;durP1;ratioP1;P1;durP2;ratioP2;P2;SDS_P1;SDS_P2;PMS_P1;PMS_P2;Temp;Humidity;BMP_temperature;BMP_pressure;BME280_temperature;BME280_humidity;BME280_pressure;Samples;Min_cycle;Max_cycle;Signal;HPM_P1;HPM_P2
2021/01/13 00:00:08;;;;;;;15.18;1.75;;;0.50;97.20;;;;;;4966269;28;20060;-84
2021/01/13 00:02:34;;;;;;;13.85;2.45;;;0.50;97.20;;;;;;4961808;28;20038;-83
2021/01/13 00:05:00;;;;;;;13.85;2.15;;;0.60;97.20;;;;;;4963753;28;20038;-83
2021/01/13 00:07:26;;;;;;;17.13;1.90;;;0.60;97.10;;;;;;4952693;28;20066;-84
2021/01/13 00:09:52;;;;;;;20.30;2.13;;;0.60;97.10;;;;;;4956210;28;20054;-83
2021/01/13 00:12:17;;;;;;;18.20;2.30;;;0.60;97.10;;;;;;4965388;28;20035;-83
2021/01/13 00:14:43;;;;;;;18.08;2.10;;;0.60;97.00;;;;;;4947187;28;20066;-84
2021/01/13 00:17:10;;;;;;;22.88;2.75;;;0.60;97.00;;;;;;4968098;28;20038;-84
2021/01/13 00:19:36;;;;;;;13.88;1.58;;;0.60;97.00;;;;;;4960100;28;20047;-84
2021/01/13 00:22:03;;;;;;;24.38;2.08;;;0.60;97.10;;;;;;4964492;28;20103;-84
2021/01/13 00:24:29;;;;;;;15.90;2.25;;;0.60;97.00;;;;;;4963274;28;20051;-84
2021/01/13 00:27:00;;;;;;;16.17;1.45;;;0.60;97.30;;;;;;4969203;28;20046;-84
2021/01/13 00:29:25;;;;;;;13.05;1.92;;;0.60;97.00;;;;;;4955492;28;20403;-84
2021/01/13 00:31:55;;;;;;;15.30;2.15;;;0.50;97.00;;;;;;4954157;28;20062;-84
2021/01/13 00:34:21;;;;;;;16.70;2.03;;;0.50;97.00;;;;;;4959488;28;20093;-83
2021/01/13 00:36:47;;;;;;;17.65;1.80;;;0.50;97.00;;;;;;4965028;28;20070;-84
2021/01/13 00:39:13;;;;;;;15.98;1.90;;;0.50;97.10;;;;;;4942686;28;20053;-84
2021/01/13 00:41:39;;;;;;;18.00;2.00;;;0.50;97.10;;;;;;4946043;28;20377;-84
2021/01/13 00:44:06;;;;;;;18.65;2.30;;;0.50;97.10;;;;;;4964964;28;20038;-83
2021/01/13 00:46:41;;;;;;;16.15;2.45;;;0.50;97.10;;;;;;4966299;28;20514;-84
2021/01/13 00:49:08;;;;;;;18.48;2.30;;;0.60;97.20;;;;;;4962517;28;20562;-84
2021/01/13 00:51:42;;;;;;;16.17;2.17;;;0.60;97.20;;;;;;4946061;28;20054;-84
2021/01/13 00:54:11;;;;;;;14.47;1.90;;;0.60;97.30;;;;;;4973653;28;20051;-83
2021/01/13 00:56:43;;;;;;;23.05;2.40;;;0.70;97.30;;;;;;4945236;28;20046;-84
2021/01/13 00:59:13;;;;;;;17.98;2.42;;;0.70;97.30;;;;;;4964564;28;20051;-84
2021/01/13 01:01:40;;;;;;;11.65;2.13;;;0.80;97.40;;;;;;4942085;28;20130;-83
2021/01/13 01:04:07;;;;;;;18.13;2.15;;;0.90;97.50;;;;;;4952364;28;20081;-83
2021/01/13 01:06:34;;;;;;;17.25;2.22;;;1.00;97.40;;;;;;4960920;28;20584;-83
2021/01/13 01:09:00;;;;;;;21.90;2.55;;;1.00;97.30;;;;;;4964070;28;20046;-84
2021/01/13 01:11:35;;;;;;;17.40;1.80;;;1.00;97.50;;;;;;4942957;28;20085;-83
2021/01/13 01:14:02;;;;;;;19.13;2.90;;;1.10;97.10;;;;;;4962513;28;20146;-83
2021/01/13 01:16:39;;;;;;;9.63;1.65;;;1.00;97.10;;;;;;4946861;28;20446;-83
2021/01/13 01:19:06;;;;;;;14.93;1.95;;;1.00;97.30;;;;;;4966259;28;20066;-83
2021/01/13 01:21:32;;;;;;;12.00;2.08;;;1.00;97.00;;;;;;4960948;28;20522;-84
2021/01/13 01:23:58;;;;;;;13.38;2.03;;;0.90;96.90;;;;;;4964067;28;20127;-83
2021/01/13 01:26:24;;;;;;;17.63;2.45;;;0.80;96.90;;;;;;4962084;28;20121;-82
2021/01/13 01:28:49;;;;;;;12.30;1.50;;;0.80;96.90;;;;;;4968341;28;20491;-83
2021/01/13 01:31:16;;;;;;;14.95;1.67;;;0.80;97.00;;;;;;4954576;28;20059;-83
2021/01/13 01:33:42;;;;;;;10.77;1.70;;;0.80;97.00;;;;;;4951963;28;20093;-82
2021/01/13 01:36:08;;;;;;;25.77;2.28;;;0.80;97.00;;;;;;4960169;28;20081;-83
2021/01/13 01:38:34;;;;;;;13.65;1.52;;;0.80;97.00;;;;;;4965947;28;20046;-84
2021/01/13 01:41:04;;;;;;;16.13;2.72;;;0.80;96.90;;;;;;4961831;28;20031;-83
2021/01/13 01:43:30;;;;;;;9.20;1.58;;;0.80;96.90;;;;;;4946450;28;20133;-83
2021/01/13 01:45:56;;;;;;;9.82;1.30;;;0.80;97.00;;;;;;4967236;28;20087;-83
2021/01/13 01:48:26;;;;;;;15.10;1.95;;;0.90;97.00;;;;;;4945147;28;20206;-84
2021/01/13 01:50:56;;;;;;;16.10;1.73;;;0.90;97.00;;;;;;4963385;28;20031;-84
2021/01/13 01:53:37;;;;;;;10.65;1.65;;;1.00;97.00;;;;;;4943001;28;20031;-84
2021/01/13 01:56:24;;;;;;;11.38;1.80;;;1.10;97.00;;;;;;4967247;28;20696;-83
2021/01/13 01:58:59;;;;;;;15.07;2.17;;;1.20;96.90;;;;;;4954842;28;20475;-83
2021/01/13 02:01:48;;;;;;;13.38;1.80;;;1.20;96.80;;;;;;4965121;28;20059;-83
2021/01/13 02:04:30;;;;;;;10.02;1.70;;;1.30;96.70;;;;;;4957258;28;20078;-83
2021/01/13 02:06:58;;;;;;;21.10;2.05;;;1.30;96.70;;;;;;4969169;28;20047;-83
2021/01/13 02:09:29;;;;;;;14.50;1.02;;;1.40;96.60;;;;;;4963870;28;20051;-83
2021/01/13 02:11:57;;;;;;;11.93;1.30;;;1.40;96.60;;;;;;4967687;28;20488;-83
2021/01/13 02:14:23;;;;;;;13.05;1.98;;;1.40;96.40;;;;;;4963141;28;20491;-83
2021/01/13 02:16:52;;;;;;;19.20;3.03;;;1.50;96.40;;;;;;4969151;28;20050;-83
2021/01/13 02:19:46;;;;;;;21.35;3.60;;;1.60;96.40;;;;;;4960490;28;20126;-83
2021/01/13 02:22:26;;;;;;;11.07;1.80;;;1.70;96.50;;;;;;4932513;29;20059;-83
2021/01/13 02:25:15;;;;;;;11.50;1.38;;;1.70;96.30;;;;;;4918140;29;20080;-83
2021/01/13 02:28:03;;;;;;;19.45;1.88;;;1.80;96.30;;;;;;4916360;29;20087;-83
2021/01/13 02:30:57;;;;;;;13.48;1.48;;;1.80;96.30;;;;;;4929753;29;20055;-83
2021/01/13 02:33:48;;;;;;;14.98;1.67;;;1.80;96.20;;;;;;4908893;29;20060;-83
2021/01/13 02:36:51;;;;;;;15.27;1.90;;;1.90;96.00;;;;;;4920945;29;20582;-83
2021/01/13 02:39:18;;;;;;;25.30;2.03;;;1.90;96.10;;;;;;4916335;28;20059;-83
2021/01/13 02:41:45;;;;;;;8.55;1.30;;;2.00;96.00;;;;;;4932228;29;20066;-83
2021/01/13 02:44:12;;;;;;;15.10;2.20;;;2.00;95.80;;;;;;4925851;29;20047;-82
2021/01/13 02:46:50;;;;;;;12.55;1.60;;;2.10;95.80;;;;;;4931384;29;20155;-83
2021/01/13 02:49:30;;;;;;;8.27;1.20;;;2.10;95.80;;;;;;4924543;29;20052;-83
2021/01/13 02:51:58;;;;;;;15.10;1.75;;;2.20;95.70;;;;;;4928070;29;20587;-83
2021/01/13 02:54:40;;;;;;;18.85;1.60;;;2.20;95.80;;;;;;4924027;29;20632;-83
2021/01/13 02:57:14;;;;;;;10.45;1.33;;;2.30;95.60;;;;;;4901320;29;20472;-83
2021/01/13 02:59:45;;;;;;;9.38;1.52;;;2.40;95.80;;;;;;4950031;28;20130;-82
2021/01/13 03:02:12;;;;;;;13.10;1.83;;;2.50;95.90;;;;;;4967866;28;20058;-82
2021/01/13 03:04:39;;;;;;;11.40;1.40;;;2.50;95.70;;;;;;4964997;28;20070;-82
2021/01/13 03:07:14;;;;;;;15.15;2.40;;;2.50;95.70;;;;;;4962623;28;20062;-82
2021/01/13 03:09:44;;;;;;;;;;;2.50;95.80;;;;;;4960291;28;20078;-82
2021/01/13 03:12:23;;;;;;;12.25;1.58;;;2.50;95.70;;;;;;4950857;28;20005;-82
2021/01/13 03:14:54;;;;;;;13.98;2.15;;;2.40;95.90;;;;;;4958180;28;20078;-83
2021/01/13 03:17:29;;;;;;;10.13;1.55;;;2.50;96.00;;;;;;4961447;28;20193;-83
2021/01/13 03:20:19;;;;;;;13.45;1.70;;;2.40;96.10;;;;;;4967205;28;20078;-82
2021/01/13 03:22:50;;;;;;;11.55;1.27;;;2.40;96.20;;;;;;4966179;28;20099;-82
2021/01/13 03:25:20;;;;;;;12.75;1.50;;;2.40;96.30;;;;;;4947166;28;20116;-82
2021/01/13 03:27:47;;;;;;;14.95;1.98;;;2.30;96.40;;;;;;4966162;28;20047;-82
2021/01/13 03:30:14;;;;;;;12.45;1.15;;;2.30;96.40;;;;;;4967900;28;20268;-83
2021/01/13 03:33:03;;;;;;;12.02;1.30;;;2.30;96.50;;;;;;4959569;28;20129;-83
2021/01/13 03:35:40;;;;;;;14.45;1.85;;;2.30;96.60;;;;;;4966753;28;20036;-82
2021/01/13 03:38:18;;;;;;;11.85;1.58;;;2.20;96.60;;;;;;4965634;28;20122;-82
2021/01/13 03:40:45;;;;;;;8.75;1.10;;;2.10;96.60;;;;;;4965808;28;20070;-82
2021/01/13 03:43:23;;;;;;;16.55;1.77;;;2.10;96.70;;;;;;4966986;28;20109;-82
2021/01/13 03:45:52;;;;;;;9.07;1.67;;;2.10;96.80;;;;;;4948433;28;20051;-82
2021/01/13 03:48:46;;;;;;;14.32;1.45;;;2.10;97.00;;;;;;4959951;28;20047;-82
2021/01/13 03:51:49;;;;;;;12.63;1.45;;;2.20;97.10;;;;;;4961506;28;20045;-82
2021/01/13 03:54:18;;;;;;;16.50;1.58;;;2.20;97.10;;;;;;4950824;28;20145;-82
2021/01/13 03:56:59;;;;;;;15.07;1.30;;;2.30;97.20;;;;;;4956413;28;20043;-82
2021/01/13 03:59:52;;;;;;;12.57;1.42;;;2.30;97.30;;;;;;4966001;28;20117;-82
2021/01/13 04:02:26;;;;;;;12.32;2.00;;;2.30;97.30;;;;;;4962618;28;20396;-82
2021/01/13 04:05:06;;;;;;;9.77;1.10;;;2.20;97.20;;;;;;4969170;28;20077;-82
2021/01/13 04:07:38;;;;;;;22.88;1.95;;;2.20;97.20;;;;;;4962786;28;20506;-83
2021/01/13 04:10:12;;;;;;;14.02;1.27;;;2.20;97.20;;;;;;4964873;28;20093;-83
2021/01/13 04:12:50;;;;;;;13.37;1.50;;;2.10;97.20;;;;;;4948065;28;20094;-83
2021/01/13 04:15:18;;;;;;;11.80;1.88;;;2.10;97.30;;;;;;4966258;28;20313;-83
2021/01/13 04:17:46;;;;;;;16.73;1.67;;;2.10;97.40;;;;;;4947130;28;20491;-83
2021/01/13 04:20:12;;;;;;;14.82;2.58;;;2.10;97.40;;;;;;4966990;28;20070;-83
2021/01/13 04:22:38;;;;;;;11.52;1.70;;;2.10;97.40;;;;;;4958051;28;20403;-82
2021/01/13 04:25:04;;;;;;;11.57;1.30;;;2.00;97.70;;;;;;4963758;28;20035;-82
2021/01/13 04:27:30;;;;;;;11.48;2.13;;;2.00;97.50;;;;;;4963900;28;20054;-82
2021/01/13 04:29:56;;;;;;;13.02;1.65;;;2.00;97.50;;;;;;4947651;28;20050;-82
2021/01/13 04:32:22;;;;;;;13.60;2.45;;;2.10;97.60;;;;;;4962587;28;20384;-82
2021/01/13 04:34:48;;;;;;;12.73;1.35;;;2.10;97.70;;;;;;4945190;28;20057;-82
2021/01/13 04:37:14;;;;;;;9.57;1.60;;;2.10;97.70;;;;;;4965852;28;20527;-82
2021/01/13 04:39:40;;;;;;;11.38;1.42;;;2.10;97.80;;;;;;4940760;28;20109;-83
2021/01/13 04:42:12;;;;;;;17.42;1.73;;;2.10;97.90;;;;;;4970304;28;20110;-83
2021/01/13 04:44:47;;;;;;;17.20;2.33;;;2.20;97.90;;;;;;4955053;28;20142;-82
2021/01/13 04:47:14;;;;;;;10.25;1.30;;;2.30;98.00;;;;;;4963094;28;20070;-82
2021/01/13 04:49:40;;;;;;;10.40;1.58;;;2.30;97.90;;;;;;4958026;28;20061;-82
2021/01/13 04:52:09;;;;;;;12.02;1.95;;;2.30;97.80;;;;;;4967471;28;20117;-82
2021/01/13 04:54:39;;;;;;;12.63;1.88;;;2.30;97.80;;;;;;4957871;28;20579;-82
2021/01/13 04:57:17;;;;;;;13.50;1.23;;;2.30;97.80;;;;;;4966470;28;20054;-82
2021/01/13 05:00:06;;;;;;;12.05;1.42;;;2.40;97.80;;;;;;4940814;28;20149;-82
2021/01/13 05:02:52;;;;;;;12.32;1.88;;;2.50;97.80;;;;;;4965252;28;20053;-82
2021/01/13 05:05:21;;;;;;;6.28;1.00;;;2.60;97.80;;;;;;4941656;28;20046;-81
2021/01/13 05:08:13;;;;;;;8.57;0.70;;;2.70;97.60;;;;;;4964877;28;20671;-82
2021/01/13 05:10:42;;;;;;;4.95;0.70;;;2.70;97.30;;;;;;4902811;29;20424;-82
2021/01/13 05:13:16;;;;;;;3.88;0.73;;;2.70;97.30;;;;;;4912210;29;20485;-82
2021/01/13 05:15:54;;;;;;;10.02;1.33;;;2.60;97.20;;;;;;4905085;29;20059;-82
2021/01/13 05:18:49;;;;;;;8.30;1.08;;;2.60;97.10;;;;;;4909820;29;20550;-82
2021/01/13 05:21:25;;;;;;;9.75;1.27;;;2.60;97.20;;;;;;4900797;29;20060;-82
2021/01/13 05:23:56;;;;;;;10.43;1.25;;;2.50;97.10;;;;;;4909841;29;20494;-82
2021/01/13 05:26:24;;;;;;;8.55;1.20;;;2.50;97.20;;;;;;4894397;29;20052;-82
2021/01/13 05:29:01;;;;;;;9.95;1.38;;;2.40;97.30;;;;;;4905749;29;20409;-82
2021/01/13 05:31:33;;;;;;;7.20;1.20;;;2.40;97.50;;;;;;4899104;29;20083;-82
2021/01/13 05:34:01;;;;;;;10.52;1.33;;;2.40;97.60;;;;;;4911351;29;20044;-81
2021/01/13 05:36:30;;;;;;;14.55;1.75;;;2.40;97.70;;;;;;4901388;29;20830;-81
2021/01/13 05:39:06;;;;;;;20.90;1.80;;;2.50;97.80;;;;;;4906272;29;20052;-81
2021/01/13 05:41:35;;;;;;;16.55;1.90;;;2.50;97.90;;;;;;4906590;28;20565;-81
2021/01/13 05:44:01;;;;;;;12.88;1.70;;;2.50;97.90;;;;;;4912842;29;20047;-81
2021/01/13 05:46:56;;;;;;;16.55;2.08;;;2.50;97.80;;;;;;4908029;29;20444;-82
2021/01/13 05:49:24;;;;;;;11.50;1.27;;;2.50;97.80;;;;;;4969145;28;20105;-82
2021/01/13 05:51:50;;;;;;;10.10;1.65;;;2.50;97.60;;;;;;4948357;28;20396;-81
2021/01/13 05:54:16;;;;;;;16.95;2.03;;;2.40;97.60;;;;;;4971544;28;20042;-81
2021/01/13 05:56:42;;;;;;;10.07;1.55;;;2.40;97.70;;;;;;4958575;28;20090;-81
2021/01/13 05:59:13;;;;;;;13.68;1.55;;;2.40;97.70;;;;;;4970664;28;20098;-82
2021/01/13 06:01:57;;;;;;;14.38;1.42;;;2.40;97.70;;;;;;4959927;28;20487;-81
2021/01/13 06:04:24;;;;;;;13.80;1.40;;;2.40;97.70;;;;;;4968439;28;20049;-81
2021/01/13 06:06:50;;;;;;;15.95;1.55;;;2.40;97.60;;;;;;4957630;28;20427;-81
2021/01/13 06:09:20;;;;;;;17.42;1.80;;;2.30;97.60;;;;;;4963880;28;20043;-82
2021/01/13 06:11:47;;;;;;;17.75;1.70;;;2.20;97.60;;;;;;4961871;28;20571;-81
2021/01/13 06:14:31;;;;;;;14.75;1.35;;;2.20;97.70;;;;;;4968308;28;20043;-82
2021/01/13 06:17:04;;;;;;;19.63;2.42;;;2.10;97.70;;;;;;4944126;28;20054;-81
2021/01/13 06:19:31;;;;;;;12.02;1.15;;;2.10;97.80;;;;;;4967353;28;20047;-82
2021/01/13 06:22:09;;;;;;;9.25;1.63;;;2.10;97.90;;;;;;4966774;28;20069;-82
2021/01/13 06:24:36;;;;;;;14.00;1.77;;;2.10;97.90;;;;;;4970526;28;20039;-83
2021/01/13 06:27:28;;;;;;;11.40;1.38;;;2.10;98.00;;;;;;4953441;28;20043;-83
2021/01/13 06:30:02;;;;;;;13.07;1.25;;;2.10;97.90;;;;;;4972498;28;20071;-84
2021/01/13 06:32:33;;;;;;;11.85;1.58;;;2.10;97.90;;;;;;4942095;28;20612;-82
2021/01/13 06:35:38;;;;;;;6.50;0.80;;;2.10;97.90;;;;;;4967186;28;20170;-83
2021/01/13 06:38:09;;;;;;;11.35;1.10;;;2.00;97.80;;;;;;4892858;29;20056;-83
2021/01/13 06:40:37;;;;;;;6.60;1.27;;;2.00;97.80;;;;;;4949138;28;20059;-83
2021/01/13 06:43:13;;;;;;;13.15;1.50;;;2.00;97.80;;;;;;4966524;28;20050;-83
2021/01/13 06:45:39;;;;;;;8.50;1.00;;;2.10;97.80;;;;;;4973618;28;20439;-83
2021/01/13 06:48:05;;;;;;;11.57;1.42;;;2.00;97.80;;;;;;4964834;28;20046;-83
2021/01/13 06:50:38;;;;;;;11.18;1.15;;;2.10;97.80;;;;;;4969408;28;20122;-85
2021/01/13 06:53:08;;;;;;;9.80;1.35;;;2.00;97.80;;;;;;4948857;28;20043;-85
2021/01/13 06:55:36;;;;;;;13.20;1.35;;;2.00;97.90;;;;;;4945509;28;20042;-85
2021/01/13 06:58:12;;;;;;;10.18;1.38;;;2.00;97.90;;;;;;4935648;28;20464;-84
2021/01/13 07:00:38;;;;;;;11.65;1.13;;;2.00;98.00;;;;;;4960555;28;20098;-83
2021/01/13 07:03:25;;;;;;;15.18;1.67;;;2.00;97.90;;;;;;4966767;28;20062;-82
2021/01/13 07:05:53;;;;;;;8.48;1.08;;;2.00;97.90;;;;;;4965495;28;20054;-82
2021/01/13 07:08:20;;;;;;;11.82;1.33;;;2.00;97.90;;;;;;4966109;28;20114;-82
2021/01/13 07:10:46;;;;;;;7.30;1.17;;;2.00;98.00;;;;;;4968047;28;20041;-83
2021/01/13 07:13:13;;;;;;;11.73;1.40;;;2.00;98.00;;;;;;4956116;28;20096;-83
2021/01/13 07:15:40;;;;;;;19.70;1.92;;;2.10;98.10;;;;;;4946963;28;20072;-83
2021/01/13 07:18:08;;;;;;;9.77;1.15;;;2.20;98.10;;;;;;4970443;28;20050;-84
2021/01/13 07:20:41;;;;;;;9.90;1.58;;;2.20;98.10;;;;;;4971631;28;20035;-83
2021/01/13 07:23:09;;;;;;;11.50;1.48;;;2.30;98.00;;;;;;4969969;28;20352;-83
2021/01/13 07:25:45;;;;;;;8.30;1.42;;;2.30;97.90;;;;;;4961661;28;20050;-83
2021/01/13 07:28:15;;;;;;;6.95;1.02;;;2.40;97.80;;;;;;4972780;28;20130;-83
2021/01/13 07:30:42;;;;;;;15.27;1.90;;;2.40;97.60;;;;;;4961125;28;20030;-83
2021/01/13 07:33:13;;;;;;;10.13;1.80;;;2.40;97.60;;;;;;4968386;28;20043;-82
2021/01/13 07:35:53;;;;;;;9.55;1.30;;;2.30;97.60;;;;;;4957254;28;20085;-83
2021/01/13 07:38:20;;;;;;;14.88;1.85;;;2.20;97.50;;;;;;4948774;28;20110;-82
2021/01/13 07:40:58;;;;;;;11.82;1.50;;;2.20;97.70;;;;;;4963890;28;20031;-82
2021/01/13 07:44:07;;;;;;;21.58;1.98;;;2.20;97.80;;;;;;4952714;28;20050;-82
2021/01/13 07:46:33;;;;;;;14.80;2.08;;;2.30;97.90;;;;;;4870117;29;20100;-82
2021/01/13 07:49:21;;;;;;;10.80;1.63;;;2.30;97.90;;;;;;4875933;29;20081;-82
2021/01/13 07:51:54;;;;;;;14.15;1.85;;;2.30;97.90;;;;;;4850193;29;20075;-83
2021/01/13 07:54:31;;;;;;;15.90;2.08;;;2.30;97.90;;;;;;4875235;29;20127;-82
2021/01/13 07:56:59;;;;;;;11.35;1.95;;;2.30;97.90;;;;;;4871857;29;20929;-81
2021/01/13 07:59:39;;;;;;;16.90;1.73;;;2.30;98.00;;;;;;4876515;29;20045;-82
2021/01/13 08:02:13;;;;;;;21.60;2.30;;;2.30;98.10;;;;;;4869785;29;20067;-81
2021/01/13 08:05:16;;;;;;;17.03;1.83;;;2.40;98.10;;;;;;4869314;29;20061;-81
2021/01/13 08:07:43;;;;;;;21.60;2.40;;;2.60;98.10;;;;;;4870242;29;20063;-81
2021/01/13 08:10:10;;;;;;;17.52;2.30;;;2.70;97.90;;;;;;4870536;29;20585;-81
2021/01/13 08:12:55;;;;;;;14.75;2.00;;;2.80;97.70;;;;;;4870275;29;20065;-81
2021/01/13 08:15:54;;;;;;;18.92;1.92;;;2.80;97.60;;;;;;4876860;29;20057;-81
2021/01/13 08:18:49;;;;;;;15.57;1.85;;;2.90;97.40;;;;;;4870847;29;20057;-81
2021/01/13 08:21:22;;;;;;;11.73;1.70;;;2.80;97.30;;;;;;4876150;29;20506;-81
2021/01/13 08:24:03;;;;;;;16.45;1.55;;;2.80;97.30;;;;;;4921737;28;20073;-81
2021/01/13 08:26:30;;;;;;;16.70;1.80;;;2.70;97.20;;;;;;4952617;28;20047;-81
2021/01/13 08:28:58;;;;;;;15.25;2.20;;;2.60;97.10;;;;;;4961930;28;20055;-81
2021/01/13 08:31:26;;;;;;;12.48;1.73;;;2.60;97.20;;;;;;4947343;28;20043;-81
2021/01/13 08:34:08;;;;;;;13.43;1.70;;;2.60;97.10;;;;;;4937767;28;20419;-81
2021/01/13 08:36:54;;;;;;;11.10;1.33;;;2.60;97.20;;;;;;4967850;28;20485;-82
2021/01/13 08:39:28;;;;;;;22.25;2.03;;;2.60;97.10;;;;;;4959472;28;20125;-82
2021/01/13 08:42:17;;;;;;;20.20;2.53;;;2.60;97.10;;;;;;4965590;28;20062;-83
2021/01/13 08:44:43;;;;;;;17.83;1.83;;;2.60;97.20;;;;;;4964709;28;20495;-82
2021/01/13 08:47:09;;;;;;;15.52;1.90;;;2.60;97.10;;;;;;4968625;28;20047;-82
2021/01/13 08:49:35;;;;;;;13.55;1.75;;;2.60;97.10;;;;;;4946061;28;20031;-83
2021/01/13 08:52:13;;;;;;;9.88;1.48;;;2.70;97.00;;;;;;4953659;28;20062;-82
2021/01/13 08:54:40;;;;;;;12.00;2.00;;;2.70;97.00;;;;;;4943055;28;20117;-83
2021/01/13 08:57:08;;;;;;;15.20;1.75;;;2.70;97.00;;;;;;4949502;28;20365;-83
2021/01/13 08:59:42;;;;;;;14.23;1.77;;;2.80;97.00;;;;;;4963540;28;20782;-84
2021/01/13 09:02:11;;;;;;;9.57;1.50;;;2.80;97.00;;;;;;4973173;28;20098;-85
2021/01/13 09:04:54;;;;;;;12.90;1.70;;;2.80;96.90;;;;;;4970097;28;21047;-83
2021/01/13 09:07:31;;;;;;;13.10;2.03;;;2.80;97.00;;;;;;4956497;28;20043;-83
2021/01/13 09:09:59;;;;;;;14.52;2.30;;;2.80;96.90;;;;;;4966695;28;20078;-84
2021/01/13 09:12:42;;;;;;;11.38;1.63;;;2.90;96.90;;;;;;4971327;28;20051;-83
2021/01/13 09:15:08;;;;;;;14.57;2.53;;;3.00;97.10;;;;;;4971209;28;20046;-84
2021/01/13 09:17:48;;;;;;;17.88;2.10;;;3.10;97.30;;;;;;4961855;28;20102;-84
2021/01/13 09:20:18;;;;;;;18.58;2.78;;;3.30;97.40;;;;;;4969912;28;20109;-84
2021/01/13 09:22:57;;;;;;;17.27;2.72;;;3.40;97.40;;;;;;4975196;28;20053;-84
2021/01/13 09:25:31;;;;;;;17.13;2.40;;;3.40;97.40;;;;;;4966674;28;20043;-83
2021/01/13 09:28:14;;;;;;;18.70;2.70;;;3.40;97.30;;;;;;4978725;28;20126;-85
2021/01/13 09:30:41;;;;;;;17.65;1.90;;;3.40;97.30;;;;;;4951902;28;20081;-84
2021/01/13 09:33:15;;;;;;;14.05;2.58;;;3.40;97.60;;;;;;4973650;28;20130;-85
2021/01/13 09:35:43;;;;;;;14.38;2.65;;;3.30;97.30;;;;;;4965002;28;20043;-85
2021/01/13 09:38:12;;;;;;;17.38;2.40;;;3.40;97.40;;;;;;4972044;28;20050;-85
2021/01/13 09:40:52;;;;;;;14.95;2.10;;;3.40;97.40;;;;;;4966821;28;20098;-86
2021/01/13 09:43:44;;;;;;;19.85;2.92;;;3.50;97.50;;;;;;4959665;28;20067;-84
2021/01/13 09:46:22;;;;;;;17.02;3.65;;;3.60;97.50;;;;;;4950352;28;20102;-85
2021/01/13 09:49:01;;;;;;;18.00;2.75;;;3.80;97.70;;;;;;4972605;28;20045;-84
2021/01/13 09:51:27;;;;;;;16.27;2.63;;;3.90;97.40;;;;;;4954538;28;20091;-85
2021/01/13 09:53:54;;;;;;;21.27;2.38;;;4.00;97.30;;;;;;4976660;28;20039;-83
2021/01/13 09:56:21;;;;;;;17.23;2.33;;;4.00;97.30;;;;;;4958099;28;20110;-83
2021/01/13 09:58:49;;;;;;;19.20;1.85;;;4.10;97.20;;;;;;4980223;28;20043;-83
2021/01/13 10:01:36;;;;;;;18.15;2.13;;;4.10;97.10;;;;;;4965666;28;20077;-83
2021/01/13 10:04:12;;;;;;;18.70;2.15;;;4.20;96.70;;;;;;4977678;28;20098;-83
2021/01/13 10:06:44;;;;;;;14.85;1.95;;;4.20;96.70;;;;;;4973100;28;20122;-83
2021/01/13 10:09:11;;;;;;;16.70;2.67;;;4.30;96.80;;;;;;4957206;28;20133;-84
2021/01/13 10:11:38;;;;;;;18.95;2.70;;;4.30;96.70;;;;;;4968152;28;20059;-84
2021/01/13 10:14:06;;;;;;;17.58;2.00;;;4.40;96.80;;;;;;4959156;28;20587;-83
2021/01/13 10:16:38;;;;;;;21.58;2.63;;;4.30;96.50;;;;;;4970411;28;20035;-83
2021/01/13 10:19:05;;;;;;;14.15;2.03;;;4.30;96.50;;;;;;4974145;28;20038;-84
2021/01/13 10:21:40;;;;;;;23.30;3.40;;;4.20;96.60;;;;;;4953952;28;20419;-83
2021/01/13 10:24:07;;;;;;;14.13;2.00;;;4.20;96.60;;;;;;4975409;28;20570;-83
2021/01/13 10:26:39;;;;;;;14.70;1.88;;;4.20;96.70;;;;;;4967817;28;20047;-83
2021/01/13 10:29:09;;;;;;;19.00;2.58;;;4.20;96.80;;;;;;4955228;28;20513;-84
2021/01/13 10:31:35;;;;;;;15.18;1.92;;;4.10;96.60;;;;;;4977147;28;20051;-83
2021/01/13 10:34:01;;;;;;;15.02;2.35;;;4.10;96.70;;;;;;4969209;28;20372;-83
2021/01/13 10:36:35;;;;;;;14.57;1.80;;;4.20;96.70;;;;;;4974914;28;20530;-83
2021/01/13 10:39:10;;;;;;;13.82;1.73;;;4.20;96.80;;;;;;4954149;28;20055;-83
2021/01/13 10:41:37;;;;;;;8.43;1.33;;;4.30;96.70;;;;;;4976973;28;20061;-83
2021/01/13 10:44:10;;;;;;;14.32;1.40;;;4.40;96.40;;;;;;4953479;28;20051;-84
2021/01/13 10:46:45;;;;;;;12.60;1.42;;;4.50;96.10;;;;;;4972739;28;20046;-83
2021/01/13 10:49:34;;;;;;;11.40;1.45;;;4.50;95.90;;;;;;4965059;28;20051;-83
2021/01/13 10:52:21;;;;;;;8.55;1.48;;;4.50;95.70;;;;;;4972449;28;20091;-83
2021/01/13 10:54:55;;;;;;;11.13;0.88;;;4.60;95.70;;;;;;4965446;28;20054;-84
2021/01/13 10:57:39;;;;;;;10.93;1.60;;;4.60;95.70;;;;;;4976274;28;20471;-84
2021/01/13 11:00:08;;;;;;;7.25;1.48;;;4.70;95.70;;;;;;4967986;28;20110;-83
2021/01/13 11:02:35;;;;;;;8.82;1.33;;;4.70;95.60;;;;;;4963129;28;20058;-83
2021/01/13 11:05:04;;;;;;;9.82;1.05;;;4.70;95.50;;;;;;4950523;28;20058;-84
2021/01/13 11:07:40;;;;;;;9.50;1.98;;;4.80;95.60;;;;;;4978503;28;20049;-84
2021/01/13 11:10:13;;;;;;;9.65;1.58;;;4.80;95.20;;;;;;4952340;28;20397;-83
2021/01/13 11:12:40;;;;;;;8.07;1.17;;;4.90;95.50;;;;;;4961068;28;20082;-83
2021/01/13 11:15:08;;;;;;;8.80;1.65;;;5.00;95.50;;;;;;4967195;28;20042;-85
2021/01/13 11:17:35;;;;;;;10.18;1.45;;;5.00;95.50;;;;;;4953063;28;20106;-85
2021/01/13 11:20:02;;;;;;;6.20;1.70;;;5.10;95.30;;;;;;4965304;28;20098;-84
2021/01/13 11:22:45;;;;;;;11.85;1.52;;;5.20;95.30;;;;;;4964681;28;20050;-85
2021/01/13 11:25:24;;;;;;;11.18;2.08;;;5.30;95.40;;;;;;4961735;28;20058;-85
2021/01/13 11:28:01;;;;;;;9.95;1.45;;;5.30;95.10;;;;;;4947569;28;20046;-85
2021/01/13 11:30:29;;;;;;;9.63;1.60;;;5.40;95.00;;;;;;4950122;28;20090;-86
2021/01/13 11:32:57;;;;;;;7.82;1.48;;;5.30;94.90;;;;;;4953719;28;20083;-86
2021/01/13 11:35:45;;;;;;;10.13;1.40;;;5.30;95.00;;;;;;4966510;28;20129;-85
2021/01/13 11:38:50;;;;;;;12.50;1.90;;;5.30;95.10;;;;;;4955456;28;20055;-85
2021/01/13 11:41:30;;;;;;;10.90;1.23;;;5.30;94.40;;;;;;4967959;28;20054;-86
2021/01/13 11:44:34;;;;;;;8.60;1.30;;;5.10;93.80;;;;;;4969806;28;20054;-85
2021/01/13 11:47:39;;;;;;;8.13;0.88;;;5.00;94.20;;;;;;4963245;28;20124;-84
2021/01/13 11:50:19;;;;;;;9.38;1.40;;;4.80;94.50;;;;;;4957384;28;20125;-85
2021/01/13 11:52:49;;;;;;;9.68;1.23;;;4.70;94.90;;;;;;4967116;28;20050;-85
2021/01/13 11:55:14;;;;;;;10.57;1.38;;;4.70;95.10;;;;;;4956026;28;20496;-85
2021/01/13 11:57:46;;;;;;;10.98;1.40;;;4.70;95.30;;;;;;4960399;28;20120;-84
2021/01/13 12:00:12;;;;;;;5.65;1.08;;;4.60;95.30;;;;;;4953129;28;20224;-85
2021/01/13 12:02:38;;;;;;;3.08;1.00;;;4.70;95.30;;;;;;4963066;28;20463;-85
2021/01/13 12:05:06;;;;;;;7.93;1.38;;;4.70;95.30;;;;;;4970634;28;20039;-85
2021/01/13 12:07:32;;;;;;;9.45;1.15;;;4.70;95.20;;;;;;4952537;28;20061;-86
2021/01/13 12:10:12;;;;;;;11.20;1.35;;;4.70;95.00;;;;;;4969610;28;20047;-85
2021/01/13 12:12:38;;;;;;;6.63;1.25;;;4.70;94.80;;;;;;4961138;28;20066;-85
2021/01/13 12:15:10;;;;;;;5.57;1.10;;;4.70;94.80;;;;;;4956809;28;20059;-85
2021/01/13 12:17:50;;;;;;;7.68;1.25;;;4.70;95.10;;;;;;4963541;28;20067;-86
2021/01/13 12:20:30;;;;;;;11.85;1.23;;;4.70;94.80;;;;;;4954429;28;20708;-85
2021/01/13 12:22:56;;;;;;;13.68;1.27;;;4.80;94.90;;;;;;4951855;28;20403;-85
2021/01/13 12:25:25;;;;;;;12.77;1.90;;;4.80;94.90;;;;;;4950795;28;20085;-85
2021/01/13 12:28:12;;;;;;;10.13;2.00;;;4.90;94.90;;;;;;4960238;28;20054;-85
2021/01/13 12:31:06;;;;;;;9.75;1.77;;;4.90;94.70;;;;;;4972047;28;20035;-85
2021/01/13 12:33:58;;;;;;;9.80;1.02;;;5.00;94.90;;;;;;4958608;28;20055;-86
2021/01/13 12:36:50;;;;;;;8.82;1.17;;;5.10;94.90;;;;;;4968350;28;20050;-86
2021/01/13 12:40:21;;;;;;;13.48;1.38;;;5.20;94.50;;;;;;4963702;28;20055;-86
2021/01/13 12:42:49;;;;;;;10.48;1.70;;;5.20;94.60;;;;;;4876381;29;20486;-85
2021/01/13 12:45:15;;;;;;;10.50;1.20;;;5.20;94.70;;;;;;4880385;29;20060;-85
2021/01/13 12:47:41;;;;;;;11.55;1.50;;;5.30;94.60;;;;;;4895912;29;20797;-86
2021/01/13 12:50:07;;;;;;;9.77;1.08;;;5.30;94.50;;;;;;4898375;28;20053;-84
2021/01/13 12:52:33;;;;;;;10.23;1.20;;;5.30;94.10;;;;;;4894795;29;20056;-85
2021/01/13 12:54:59;;;;;;;7.25;1.20;;;5.20;94.10;;;;;;4889980;29;20048;-84
2021/01/13 12:57:24;;;;;;;8.63;1.27;;;5.20;94.10;;;;;;4902584;29;20058;-85
2021/01/13 12:59:50;;;;;;;9.77;1.35;;;5.10;94.30;;;;;;4900393;29;20061;-85
2021/01/13 13:02:16;;;;;;;8.85;0.98;;;5.20;94.30;;;;;;4902555;29;20052;-83
2021/01/13 13:04:42;;;;;;;7.97;1.75;;;5.20;94.40;;;;;;4887326;29;20056;-85
2021/01/13 13:07:07;;;;;;;9.05;1.30;;;5.20;94.20;;;;;;4899227;29;20132;-84
2021/01/13 13:09:33;;;;;;;13.32;1.50;;;5.20;94.40;;;;;;4888692;29;20075;-84
2021/01/13 13:11:59;;;;;;;12.25;1.17;;;5.30;94.50;;;;;;4924451;28;20901;-84
2021/01/13 13:14:25;;;;;;;6.30;1.17;;;5.40;94.50;;;;;;4947508;28;20063;-84
2021/01/13 13:16:51;;;;;;;9.60;1.30;;;5.40;94.50;;;;;;4969489;28;20062;-84
2021/01/13 13:19:17;;;;;;;8.35;1.20;;;5.50;94.30;;;;;;4959560;28;20079;-84
2021/01/13 13:21:42;;;;;;;9.35;1.05;;;5.50;94.40;;;;;;4967214;28;20047;-84